sensor_id;sensor_type;location;lat;lon;timestamp;P1;durP1;ratioP1;P2;durP2;ratioP2
27722;SDS011;15123;-37.794;175.246;2022-09-13T00:02:55;17.40;;;2.10;;
27722;SDS011;15123;-37.794;175.246;2022-09-13T00:06:20;16.73;;;2.60;;
27722;SDS011;15123;-37.794;175.246;2022-09-13T00:09:45;18.83;;;2.58;;
27722;SDS011;15123;-37.794;175.246;2022-09-13T00:13:11;17.17;;;2.05;;
27722;SDS011;15123;-37.794;175.246;2022-09-13T00:16:36;14.10;;;2.03;;
27722;SDS011;15123;-37.794;175.246;2022-09-13T00:20:00;17.73;;;2.22;;
27722;SDS011;15123;-37.794;175.246;2022-09-13T00:23:24;17.33;;;2.03;;
27722;SDS011;15123;-37.794;175.246;2022-09-13T00:26:49;15.48;;;1.98;;
27722;SDS011;15123;-37.794;175.246;2022-09-13T00:30:13;14.75;;;2.20;;
27722;SDS011;15123;-37.794;175.246;2022-09-13T00:33:37;19.27;;;2.50;;
27722;SDS011;15123;-37.794;175.246;2022-09-13T00:37:01;19.25;;;2.70;;
27722;SDS011;15123;-37.794;175.246;2022-09-13T00:40:25;20.90;;;2.40;;
27722;SDS011;15123;-37.794;175.246;2022-09-13T00:47:24;14.20;;;1.90;;
27722;SDS011;15123;-37.794;175.246;2022-09-13T00:50:59;15.00;;;2.05;;
27722;SDS011;15123;-37.794;175.246;2022-09-13T00:54:25;15.18;;;2.20;;
27722;SDS011;15123;-37.794;175.246;2022-09-13T00:57:52;22.98;;;2.70;;
27722;SDS011;15123;-37.794;175.246;2022-09-13T01:01:16;16.02;;;2.60;;
27722;SDS011;15123;-37.794;175.246;2022-09-13T01:04:41;19.85;;;2.60;;
27722;SDS011;15123;-37.794;175.246;2022-09-13T01:08:05;15.40;;;2.30;;
27722;SDS011;15123;-37.794;175.246;2022-09-13T01:15:20;18.63;;;2.30;;
27722;SDS011;15123;-37.794;175.246;2022-09-13T01:18:45;17.63;;;2.10;;
27722;SDS011;15123;-37.794;175.246;2022-09-13T01:22:23;15.80;;;2.13;;
27722;SDS011;15123;-37.794;175.246;2022-09-13T01:33:34;19.73;;;2.22;;
27722;SDS011;15123;-37.794;175.246;2022-09-13T01:41:19;14.82;;;1.80;;
27722;SDS011;15123;-37.794;175.246;2022-09-13T01:53:16;16.75;;;2.30;;
27722;SDS011;15123;-37.794;175.246;2022-09-13T02:00:29;13.55;;;1.92;;
27722;SDS011;15123;-37.794;175.246;2022-09-13T02:04:40;14.20;;;1.70;;
27722;SDS011;15123;-37.794;175.246;2022-09-13T02:07:52;12.93;;;1.75;;
27722;SDS011;15123;-37.794;175.246;2022-09-13T02:11:38;11.68;;;1.85;;
27722;SDS011;15123;-37.794;175.246;2022-09-13T02:18:42;13.55;;;1.80;;
27722;SDS011;15123;-37.794;175.246;2022-09-13T02:22:10;20.88;;;2.78;;
27722;SDS011;15123;-37.794;175.246;2022-09-13T02:25:34;18.17;;;2.28;;
27722;SDS011;15123;-37.794;175.246;2022-09-13T02:29:01;17.25;;;2.45;;
27722;SDS011;15123;-37.794;175.246;2022-09-13T02:32:42;18.92;;;2.38;;
27722;SDS011;15123;-37.794;175.246;2022-09-13T02:36:16;16.85;;;2.08;;
27722;SDS011;15123;-37.794;175.246;2022-09-13T02:39:43;16.15;;;2.28;;
27722;SDS011;15123;-37.794;175.246;2022-09-13T02:43:07;19.70;;;2.38;;
27722;SDS011;15123;-37.794;175.246;2022-09-13T02:58:18;19.25;;;2.42;;
27722;SDS011;15123;-37.794;175.246;2022-09-13T03:01:48;15.88;;;1.90;;
27722;SDS011;15123;-37.794;175.246;2022-09-13T03:05:31;19.77;;;2.20;;
27722;SDS011;15123;-37.794;175.246;2022-09-13T03:08:56;15.43;;;2.17;;
27722;SDS011;15123;-37.794;175.246;2022-09-13T03:16:18;17.13;;;2.30;;
27722;SDS011;15123;-37.794;175.246;2022-09-13T03:20:15;17.48;;;1.98;;
27722;SDS011;15123;-37.794;175.246;2022-09-13T03:27:37;17.15;;;1.90;;
27722;SDS011;15123;-37.794;175.246;2022-09-13T03:38:48;12.65;;;2.40;;
27722;SDS011;15123;-37.794;175.246;2022-09-13T03:42:17;6.03;;;0.80;;
27722;SDS011;15123;-37.794;175.246;2022-09-13T03:45:47;5.53;;;1.08;;
27722;SDS011;15123;-37.794;175.246;2022-09-13T03:49:20;6.80;;;1.10;;
27722;SDS011;15123;-37.794;175.246;2022-09-13T03:52:46;4.88;;;0.63;;
27722;SDS011;15123;-37.794;175.246;2022-09-13T03:56:14;8.15;;;1.38;;
27722;SDS011;15123;-37.794;175.246;2022-09-13T03:59:46;5.22;;;1.10;;
27722;SDS011;15123;-37.794;175.246;2022-09-13T04:03:14;8.50;;;1.48;;
27722;SDS011;15123;-37.794;175.246;2022-09-13T04:06:38;10.38;;;1.58;;
27722;SDS011;15123;-37.794;175.246;2022-09-13T04:09:55;5.65;;;0.80;;
27722;SDS011;15123;-37.794;175.246;2022-09-13T04:13:20;9.00;;;1.13;;
27722;SDS011;15123;-37.794;175.246;2022-09-13T04:16:44;10.18;;;1.70;;
27722;SDS011;15123;-37.794;175.246;2022-09-13T04:20:08;9.13;;;1.88;;
27722;SDS011;15123;-37.794;175.246;2022-09-13T04:23:32;10.65;;;1.65;;
27722;SDS011;15123;-37.794;175.246;2022-09-13T04:26:56;8.25;;;1.30;;
27722;SDS011;15123;-37.794;175.246;2022-09-13T04:30:20;10.00;;;1.40;;
27722;SDS011;15123;-37.794;175.246;2022-09-13T04:33:49;7.72;;;1.35;;
27722;SDS011;15123;-37.794;175.246;2022-09-13T04:37:14;9.45;;;1.10;;
27722;SDS011;15123;-37.794;175.246;2022-09-13T04:40:39;11.93;;;1.25;;
27722;SDS011;15123;-37.794;175.246;2022-09-13T04:44:03;10.18;;;1.30;;
27722;SDS011;15123;-37.794;175.246;2022-09-13T04:47:22;11.23;;;1.55;;
27722;SDS011;15123;-37.794;175.246;2022-09-13T04:50:38;11.65;;;1.50;;
27722;SDS011;15123;-37.794;175.246;2022-09-13T04:54:02;13.85;;;1.58;;
27722;SDS011;15123;-37.794;175.246;2022-09-13T04:57:27;12.98;;;1.77;;
27722;SDS011;15123;-37.794;175.246;2022-09-13T05:00:51;10.68;;;1.60;;
27722;SDS011;15123;-37.794;175.246;2022-09-13T05:04:15;14.10;;;1.80;;
27722;SDS011;15123;-37.794;175.246;2022-09-13T05:07:39;12.82;;;1.45;;
27722;SDS011;15123;-37.794;175.246;2022-09-13T05:11:05;17.25;;;1.80;;
27722;SDS011;15123;-37.794;175.246;2022-09-13T05:14:29;14.98;;;1.80;;
27722;SDS011;15123;-37.794;175.246;2022-09-13T05:17:46;17.20;;;2.10;;
27722;SDS011;15123;-37.794;175.246;2022-09-13T05:21:12;15.05;;;2.33;;
27722;SDS011;15123;-37.794;175.246;2022-09-13T05:24:36;16.88;;;2.50;;
27722;SDS011;15123;-37.794;175.246;2022-09-13T05:28:00;14.90;;;2.17;;
27722;SDS011;15123;-37.794;175.246;2022-09-13T05:31:28;16.70;;;2.40;;
27722;SDS011;15123;-37.794;175.246;2022-09-13T05:34:53;20.80;;;3.17;;
27722;SDS011;15123;-37.794;175.246;2022-09-13T05:38:18;15.63;;;2.50;;
27722;SDS011;15123;-37.794;175.246;2022-09-13T05:41:43;16.05;;;2.28;;
27722;SDS011;15123;-37.794;175.246;2022-09-13T05:45:08;19.98;;;2.55;;
27722;SDS011;15123;-37.794;175.246;2022-09-13T05:48:33;17.67;;;2.50;;
27722;SDS011;15123;-37.794;175.246;2022-09-13T05:51:56;14.00;;;2.40;;
27722;SDS011;15123;-37.794;175.246;2022-09-13T05:55:20;19.23;;;3.33;;
27722;SDS011;15123;-37.794;175.246;2022-09-13T05:58:44;20.00;;;2.35;;
27722;SDS011;15123;-37.794;175.246;2022-09-13T06:02:10;19.50;;;2.60;;
27722;SDS011;15123;-37.794;175.246;2022-09-13T06:05:34;21.52;;;2.72;;
27722;SDS011;15123;-37.794;175.246;2022-09-13T06:08:58;18.90;;;2.80;;
27722;SDS011;15123;-37.794;175.246;2022-09-13T06:12:23;15.32;;;2.38;;
27722;SDS011;15123;-37.794;175.246;2022-09-13T06:15:46;13.63;;;2.80;;
27722;SDS011;15123;-37.794;175.246;2022-09-13T06:19:10;23.67;;;3.30;;
27722;SDS011;15123;-37.794;175.246;2022-09-13T06:22:35;14.63;;;2.30;;
27722;SDS011;15123;-37.794;175.246;2022-09-13T06:26:06;15.23;;;2.42;;
27722;SDS011;15123;-37.794;175.246;2022-09-13T06:29:33;15.55;;;1.92;;
27722;SDS011;15123;-37.794;175.246;2022-09-13T06:32:58;19.48;;;3.78;;
27722;SDS011;15123;-37.794;175.246;2022-09-13T06:36:21;19.60;;;4.18;;
27722;SDS011;15123;-37.794;175.246;2022-09-13T06:39:45;14.25;;;2.38;;
27722;SDS011;15123;-37.794;175.246;2022-09-13T06:43:10;12.68;;;2.47;;
27722;SDS011;15123;-37.794;175.246;2022-09-13T06:46:34;15.70;;;2.20;;
27722;SDS011;15123;-37.794;175.246;2022-09-13T06:49:52;18.35;;;3.00;;
27722;SDS011;15123;-37.794;175.246;2022-09-13T06:53:10;17.27;;;3.33;;
27722;SDS011;15123;-37.794;175.246;2022-09-13T06:56:35;23.75;;;3.42;;
27722;SDS011;15123;-37.794;175.246;2022-09-13T06:59:59;15.85;;;2.47;;
27722;SDS011;15123;-37.794;175.246;2022-09-13T07:03:23;13.52;;;2.90;;
27722;SDS011;15123;-37.794;175.246;2022-09-13T07:06:49;16.45;;;2.30;;
27722;SDS011;15123;-37.794;175.246;2022-09-13T07:10:14;20.85;;;2.47;;
27722;SDS011;15123;-37.794;175.246;2022-09-13T07:13:38;14.50;;;2.28;;
27722;SDS011;15123;-37.794;175.246;2022-09-13T07:17:01;17.65;;;2.78;;
27722;SDS011;15123;-37.794;175.246;2022-09-13T07:20:24;17.00;;;3.22;;
27722;SDS011;15123;-37.794;175.246;2022-09-13T07:23:49;14.15;;;2.40;;
27722;SDS011;15123;-37.794;175.246;2022-09-13T07:27:13;15.82;;;2.80;;
27722;SDS011;15123;-37.794;175.246;2022-09-13T07:30:38;19.00;;;2.83;;
27722;SDS011;15123;-37.794;175.246;2022-09-13T07:34:03;14.85;;;2.30;;
27722;SDS011;15123;-37.794;175.246;2022-09-13T07:37:28;15.07;;;2.10;;
27722;SDS011;15123;-37.794;175.246;2022-09-13T07:40:56;13.20;;;1.63;;
27722;SDS011;15123;-37.794;175.246;2022-09-13T07:44:22;11.82;;;1.80;;
27722;SDS011;15123;-37.794;175.246;2022-09-13T07:47:46;13.27;;;1.85;;
27722;SDS011;15123;-37.794;175.246;2022-09-13T07:51:09;12.07;;;1.92;;
27722;SDS011;15123;-37.794;175.246;2022-09-13T07:54:27;15.25;;;1.80;;
27722;SDS011;15123;-37.794;175.246;2022-09-13T07:57:53;17.13;;;3.80;;
27722;SDS011;15123;-37.794;175.246;2022-09-13T08:01:24;14.48;;;2.58;;
27722;SDS011;15123;-37.794;175.246;2022-09-13T08:04:49;16.30;;;2.30;;
27722;SDS011;15123;-37.794;175.246;2022-09-13T08:08:13;15.13;;;2.25;;
27722;SDS011;15123;-37.794;175.246;2022-09-13T08:11:39;14.43;;;2.30;;
27722;SDS011;15123;-37.794;175.246;2022-09-13T08:15:08;11.90;;;2.30;;
27722;SDS011;15123;-37.794;175.246;2022-09-13T08:18:32;14.95;;;1.73;;
27722;SDS011;15123;-37.794;175.246;2022-09-13T08:21:55;19.02;;;2.67;;
27722;SDS011;15123;-37.794;175.246;2022-09-13T08:25:19;13.52;;;2.35;;
27722;SDS011;15123;-37.794;175.246;2022-09-13T08:28:43;16.65;;;2.70;;
27722;SDS011;15123;-37.794;175.246;2022-09-13T08:32:07;15.73;;;2.58;;
27722;SDS011;15123;-37.794;175.246;2022-09-13T08:35:32;15.50;;;2.55;;
27722;SDS011;15123;-37.794;175.246;2022-09-13T08:38:58;18.48;;;3.55;;
27722;SDS011;15123;-37.794;175.246;2022-09-13T08:42:28;15.25;;;2.58;;
27722;SDS011;15123;-37.794;175.246;2022-09-13T08:49:27;14.90;;;2.28;;
27722;SDS011;15123;-37.794;175.246;2022-09-13T09:00:19;16.15;;;4.15;;
27722;SDS011;15123;-37.794;175.246;2022-09-13T09:04:45;16.10;;;4.10;;
27722;SDS011;15123;-37.794;175.246;2022-09-13T09:11:30;16.80;;;3.55;;
27722;SDS011;15123;-37.794;175.246;2022-09-13T09:18:37;17.10;;;3.10;;
27722;SDS011;15123;-37.794;175.246;2022-09-13T09:22:04;15.02;;;2.50;;
27722;SDS011;15123;-37.794;175.246;2022-09-13T09:25:38;14.75;;;2.80;;
27722;SDS011;15123;-37.794;175.246;2022-09-13T09:39:58;15.00;;;2.38;;
27722;SDS011;15123;-37.794;175.246;2022-09-13T09:43:26;14.45;;;2.30;;
27722;SDS011;15123;-37.794;175.246;2022-09-13T09:46:56;13.38;;;1.95;;
27722;SDS011;15123;-37.794;175.246;2022-09-13T09:50:36;19.73;;;2.95;;
27722;SDS011;15123;-37.794;175.246;2022-09-13T09:54:02;16.13;;;1.80;;
27722;SDS011;15123;-37.794;175.246;2022-09-13T10:01:34;12.48;;;1.67;;
27722;SDS011;15123;-37.794;175.246;2022-09-13T10:04:59;14.20;;;2.00;;
27722;SDS011;15123;-37.794;175.246;2022-09-13T10:08:31;19.13;;;2.08;;
27722;SDS011;15123;-37.794;175.246;2022-09-13T10:11:57;16.42;;;2.30;;
27722;SDS011;15123;-37.794;175.246;2022-09-13T10:15:27;13.77;;;2.13;;
27722;SDS011;15123;-37.794;175.246;2022-09-13T10:18:52;15.95;;;2.67;;
27722;SDS011;15123;-37.794;175.246;2022-09-13T10:22:19;16.25;;;2.22;;
27722;SDS011;15123;-37.794;175.246;2022-09-13T10:25:45;12.88;;;1.90;;
27722;SDS011;15123;-37.794;175.246;2022-09-13T10:29:17;17.05;;;1.92;;
27722;SDS011;15123;-37.794;175.246;2022-09-13T10:32:41;14.38;;;2.17;;
27722;SDS011;15123;-37.794;175.246;2022-09-13T10:36:42;14.65;;;2.45;;
27722;SDS011;15123;-37.794;175.246;2022-09-13T10:43:44;16.87;;;2.40;;
27722;SDS011;15123;-37.794;175.246;2022-09-13T10:47:24;13.10;;;2.17;;
27722;SDS011;15123;-37.794;175.246;2022-09-13T10:51:36;12.95;;;1.73;;
27722;SDS011;15123;-37.794;175.246;2022-09-13T10:54:53;13.68;;;1.60;;
27722;SDS011;15123;-37.794;175.246;2022-09-13T10:58:18;12.20;;;1.92;;
27722;SDS011;15123;-37.794;175.246;2022-09-13T11:09:30;11.27;;;1.80;;
27722;SDS011;15123;-37.794;175.246;2022-09-13T11:27:58;12.93;;;1.92;;
27722;SDS011;15123;-37.794;175.246;2022-09-13T11:35:32;16.45;;;2.90;;
27722;SDS011;15123;-37.794;175.246;2022-09-13T11:42:35;18.63;;;3.00;;
27722;SDS011;15123;-37.794;175.246;2022-09-13T11:46:18;16.17;;;2.60;;
27722;SDS011;15123;-37.794;175.246;2022-09-13T11:54:18;18.95;;;2.92;;
27722;SDS011;15123;-37.794;175.246;2022-09-13T11:57:56;14.13;;;2.10;;
27722;SDS011;15123;-37.794;175.246;2022-09-13T12:01:33;13.23;;;2.30;;
27722;SDS011;15123;-37.794;175.246;2022-09-13T12:05:04;20.05;;;2.83;;
27722;SDS011;15123;-37.794;175.246;2022-09-13T12:08:46;17.00;;;2.00;;
27722;SDS011;15123;-37.794;175.246;2022-09-13T12:12:12;13.02;;;2.10;;
27722;SDS011;15123;-37.794;175.246;2022-09-13T12:15:38;14.57;;;1.65;;
27722;SDS011;15123;-37.794;175.246;2022-09-13T12:19:10;13.93;;;1.67;;
27722;SDS011;15123;-37.794;175.246;2022-09-13T12:22:42;14.48;;;1.90;;
27722;SDS011;15123;-37.794;175.246;2022-09-13T12:26:22;13.07;;;1.52;;
27722;SDS011;15123;-37.794;175.246;2022-09-13T12:30:04;15.38;;;1.73;;
27722;SDS011;15123;-37.794;175.246;2022-09-13T12:33:41;11.77;;;1.60;;
27722;SDS011;15123;-37.794;175.246;2022-09-13T12:37:09;13.52;;;1.88;;
27722;SDS011;15123;-37.794;175.246;2022-09-13T12:41:04;14.15;;;1.70;;
27722;SDS011;15123;-37.794;175.246;2022-09-13T12:44:43;13.63;;;1.98;;
27722;SDS011;15123;-37.794;175.246;2022-09-13T12:59:18;16.58;;;3.30;;
27722;SDS011;15123;-37.794;175.246;2022-09-13T13:10:00;15.73;;;3.58;;
27722;SDS011;15123;-37.794;175.246;2022-09-13T13:13:29;16.15;;;2.22;;
27722;SDS011;15123;-37.794;175.246;2022-09-13T13:27:44;16.50;;;1.50;;
27722;SDS011;15123;-37.794;175.246;2022-09-13T13:34:54;14.65;;;1.50;;
27722;SDS011;15123;-37.794;175.246;2022-09-13T13:45:22;22.25;;;3.15;;
27722;SDS011;15123;-37.794;175.246;2022-09-13T13:48:48;12.45;;;1.38;;
27722;SDS011;15123;-37.794;175.246;2022-09-13T13:55:41;14.73;;;1.98;;
27722;SDS011;15123;-37.794;175.246;2022-09-13T13:59:12;13.65;;;1.45;;
27722;SDS011;15123;-37.794;175.246;2022-09-13T14:09:48;12.90;;;1.50;;
27722;SDS011;15123;-37.794;175.246;2022-09-13T14:20:55;13.48;;;1.70;;
27722;SDS011;15123;-37.794;175.246;2022-09-13T14:24:26;14.00;;;1.45;;
27722;SDS011;15123;-37.794;175.246;2022-09-13T14:27:51;13.93;;;1.48;;
27722;SDS011;15123;-37.794;175.246;2022-09-13T14:31:19;12.48;;;1.35;;
27722;SDS011;15123;-37.794;175.246;2022-09-13T14:34:50;11.38;;;1.70;;
27722;SDS011;15123;-37.794;175.246;2022-09-13T14:38:23;12.63;;;1.50;;
27722;SDS011;15123;-37.794;175.246;2022-09-13T14:42:00;14.27;;;1.67;;
27722;SDS011;15123;-37.794;175.246;2022-09-13T14:45:34;14.52;;;1.40;;
27722;SDS011;15123;-37.794;175.246;2022-09-13T14:48:59;13.93;;;1.50;;
27722;SDS011;15123;-37.794;175.246;2022-09-13T14:52:27;12.43;;;1.58;;
27722;SDS011;15123;-37.794;175.246;2022-09-13T14:55:59;13.15;;;1.48;;
27722;SDS011;15123;-37.794;175.246;2022-09-13T14:59:30;13.38;;;1.77;;
27722;SDS011;15123;-37.794;175.246;2022-09-13T15:02:58;12.65;;;1.52;;
27722;SDS011;15123;-37.794;175.246;2022-09-13T15:06:31;12.35;;;1.20;;
27722;SDS011;15123;-37.794;175.246;2022-09-13T15:13:36;11.35;;;1.30;;
27722;SDS011;15123;-37.794;175.246;2022-09-13T15:17:09;13.30;;;1.48;;
27722;SDS011;15123;-37.794;175.246;2022-09-13T15:24:29;13.95;;;1.63;;
27722;SDS011;15123;-37.794;175.246;2022-09-13T15:27:56;13.02;;;1.40;;
27722;SDS011;15123;-37.794;175.246;2022-09-13T15:31:20;13.93;;;1.52;;
27722;SDS011;15123;-37.794;175.246;2022-09-13T15:34:47;8.98;;;1.20;;
27722;SDS011;15123;-37.794;175.246;2022-09-13T15:41:55;10.82;;;1.60;;
27722;SDS011;15123;-37.794;175.246;2022-09-13T15:45:21;11.60;;;1.58;;
27722;SDS011;15123;-37.794;175.246;2022-09-13T15:48:49;12.07;;;1.40;;
27722;SDS011;15123;-37.794;175.246;2022-09-13T15:52:16;9.88;;;1.27;;
27722;SDS011;15123;-37.794;175.246;2022-09-13T15:55:43;9.13;;;1.35;;
27722;SDS011;15123;-37.794;175.246;2022-09-13T15:59:07;14.88;;;1.70;;
27722;SDS011;15123;-37.794;175.246;2022-09-13T16:02:37;14.15;;;1.30;;
27722;SDS011;15123;-37.794;175.246;2022-09-13T16:06:00;15.15;;;1.75;;
27722;SDS011;15123;-37.794;175.246;2022-09-13T16:09:27;12.63;;;1.60;;
27722;SDS011;15123;-37.794;175.246;2022-09-13T16:12:53;11.02;;;1.38;;
27722;SDS011;15123;-37.794;175.246;2022-09-13T16:16:17;11.98;;;1.30;;
27722;SDS011;15123;-37.794;175.246;2022-09-13T16:19:40;10.25;;;1.20;;
27722;SDS011;15123;-37.794;175.246;2022-09-13T16:23:04;14.30;;;1.30;;
27722;SDS011;15123;-37.794;175.246;2022-09-13T16:26:28;11.52;;;1.45;;
27722;SDS011;15123;-37.794;175.246;2022-09-13T16:29:53;13.02;;;1.80;;
27722;SDS011;15123;-37.794;175.246;2022-09-13T16:33:17;9.50;;;1.13;;
27722;SDS011;15123;-37.794;175.246;2022-09-13T16:36:41;10.18;;;1.15;;
27722;SDS011;15123;-37.794;175.246;2022-09-13T16:40:04;12.65;;;1.38;;
27722;SDS011;15123;-37.794;175.246;2022-09-13T16:43:29;11.70;;;1.10;;
27722;SDS011;15123;-37.794;175.246;2022-09-13T16:46:52;13.48;;;1.50;;
27722;SDS011;15123;-37.794;175.246;2022-09-13T16:50:16;12.55;;;1.23;;
27722;SDS011;15123;-37.794;175.246;2022-09-13T16:53:35;10.90;;;1.45;;
27722;SDS011;15123;-37.794;175.246;2022-09-13T16:56:54;9.30;;;1.23;;
27722;SDS011;15123;-37.794;175.246;2022-09-13T17:00:18;12.90;;;1.23;;
27722;SDS011;15123;-37.794;175.246;2022-09-13T17:03:44;10.20;;;1.15;;
27722;SDS011;15123;-37.794;175.246;2022-09-13T17:07:08;9.60;;;1.23;;
27722;SDS011;15123;-37.794;175.246;2022-09-13T17:10:32;8.95;;;1.17;;
27722;SDS011;15123;-37.794;175.246;2022-09-13T17:13:56;10.20;;;1.30;;
27722;SDS011;15123;-37.794;175.246;2022-09-13T17:17:20;11.68;;;1.20;;
27722;SDS011;15123;-37.794;175.246;2022-09-13T17:20:50;14.32;;;1.42;;
27722;SDS011;15123;-37.794;175.246;2022-09-13T17:24:14;11.07;;;1.40;;
27722;SDS011;15123;-37.794;175.246;2022-09-13T17:27:38;15.82;;;1.70;;
27722;SDS011;15123;-37.794;175.246;2022-09-13T17:31:02;11.38;;;1.33;;
27722;SDS011;15123;-37.794;175.246;2022-09-13T17:34:26;12.15;;;1.20;;
27722;SDS011;15123;-37.794;175.246;2022-09-13T17:37:49;11.77;;;1.30;;
27722;SDS011;15123;-37.794;175.246;2022-09-13T17:41:15;11.43;;;1.27;;
27722;SDS011;15123;-37.794;175.246;2022-09-13T17:44:40;14.75;;;1.92;;
27722;SDS011;15123;-37.794;175.246;2022-09-13T17:48:04;12.77;;;1.10;;
27722;SDS011;15123;-37.794;175.246;2022-09-13T17:51:29;9.70;;;1.20;;
27722;SDS011;15123;-37.794;175.246;2022-09-13T17:54:54;7.57;;;1.35;;
27722;SDS011;15123;-37.794;175.246;2022-09-13T17:58:18;12.40;;;1.40;;
27722;SDS011;15123;-37.794;175.246;2022-09-13T18:01:43;7.43;;;1.23;;
27722;SDS011;15123;-37.794;175.246;2022-09-13T18:05:15;8.65;;;1.20;;
27722;SDS011;15123;-37.794;175.246;2022-09-13T18:08:39;10.00;;;1.30;;
27722;SDS011;15123;-37.794;175.246;2022-09-13T18:12:03;9.52;;;1.20;;
27722;SDS011;15123;-37.794;175.246;2022-09-13T18:15:27;11.65;;;1.40;;
27722;SDS011;15123;-37.794;175.246;2022-09-13T18:18:51;10.02;;;1.13;;
27722;SDS011;15123;-37.794;175.246;2022-09-13T18:22:16;11.05;;;1.35;;
27722;SDS011;15123;-37.794;175.246;2022-09-13T18:25:40;9.55;;;1.30;;
27722;SDS011;15123;-37.794;175.246;2022-09-13T18:29:09;10.85;;;1.30;;
27722;SDS011;15123;-37.794;175.246;2022-09-13T18:32:35;10.82;;;1.70;;
27722;SDS011;15123;-37.794;175.246;2022-09-13T18:39:27;11.85;;;1.30;;
27722;SDS011;15123;-37.794;175.246;2022-09-13T18:42:50;7.85;;;1.33;;
27722;SDS011;15123;-37.794;175.246;2022-09-13T18:46:15;10.95;;;1.50;;
27722;SDS011;15123;-37.794;175.246;2022-09-13T18:49:41;11.82;;;1.70;;
27722;SDS011;15123;-37.794;175.246;2022-09-13T18:53:05;9.45;;;1.73;;
27722;SDS011;15123;-37.794;175.246;2022-09-13T18:56:24;9.57;;;1.90;;
27722;SDS011;15123;-37.794;175.246;2022-09-13T18:59:49;11.48;;;2.10;;
27722;SDS011;15123;-37.794;175.246;2022-09-13T19:03:13;12.43;;;2.90;;
27722;SDS011;15123;-37.794;175.246;2022-09-13T19:06:38;12.80;;;2.80;;
27722;SDS011;15123;-37.794;175.246;2022-09-13T19:10:03;16.73;;;2.88;;
27722;SDS011;15123;-37.794;175.246;2022-09-13T19:13:28;8.73;;;2.13;;
27722;SDS011;15123;-37.794;175.246;2022-09-13T19:16:52;14.50;;;2.60;;
27722;SDS011;15123;-37.794;175.246;2022-09-13T19:20:19;9.48;;;2.40;;
27722;SDS011;15123;-37.794;175.246;2022-09-13T19:23:43;13.18;;;2.63;;
27722;SDS011;15123;-37.794;175.246;2022-09-13T19:27:15;12.05;;;2.60;;
27722;SDS011;15123;-37.794;175.246;2022-09-13T19:30:39;10.52;;;2.35;;
27722;SDS011;15123;-37.794;175.246;2022-09-13T19:34:05;11.25;;;1.45;;
27722;SDS011;15123;-37.794;175.246;2022-09-13T19:37:30;11.23;;;1.77;;
27722;SDS011;15123;-37.794;175.246;2022-09-13T19:40:57;10.07;;;1.55;;
27722;SDS011;15123;-37.794;175.246;2022-09-13T19:44:22;10.18;;;1.23;;
27722;SDS011;15123;-37.794;175.246;2022-09-13T19:47:47;10.50;;;1.20;;
27722;SDS011;15123;-37.794;175.246;2022-09-13T19:51:32;8.98;;;1.30;;
27722;SDS011;15123;-37.794;175.246;2022-09-13T19:54:58;8.10;;;1.42;;
27722;SDS011;15123;-37.794;175.246;2022-09-13T19:58:16;9.30;;;1.42;;
27722;SDS011;15123;-37.794;175.246;2022-09-13T20:01:41;9.38;;;1.27;;
27722;SDS011;15123;-37.794;175.246;2022-09-13T20:05:07;8.75;;;1.10;;
27722;SDS011;15123;-37.794;175.246;2022-09-13T20:08:35;10.95;;;1.20;;
27722;SDS011;15123;-37.794;175.246;2022-09-13T20:11:59;7.10;;;0.88;;
27722;SDS011;15123;-37.794;175.246;2022-09-13T20:15:24;10.55;;;1.27;;
27722;SDS011;15123;-37.794;175.246;2022-09-13T20:18:49;8.15;;;1.02;;
27722;SDS011;15123;-37.794;175.246;2022-09-13T20:22:33;8.23;;;1.00;;
27722;SDS011;15123;-37.794;175.246;2022-09-13T20:25:50;7.90;;;1.05;;
27722;SDS011;15123;-37.794;175.246;2022-09-13T20:29:14;9.90;;;1.20;;
27722;SDS011;15123;-37.794;175.246;2022-09-13T20:32:39;7.93;;;0.90;;
27722;SDS011;15123;-37.794;175.246;2022-09-13T20:36:13;7.85;;;1.00;;
27722;SDS011;15123;-37.794;175.246;2022-09-13T20:39:37;9.15;;;1.30;;
27722;SDS011;15123;-37.794;175.246;2022-09-13T20:43:02;8.63;;;1.05;;
27722;SDS011;15123;-37.794;175.246;2022-09-13T20:46:25;8.35;;;1.40;;
27722;SDS011;15123;-37.794;175.246;2022-09-13T20:49:50;9.20;;;1.10;;
27722;SDS011;15123;-37.794;175.246;2022-09-13T20:53:13;7.65;;;1.02;;
27722;SDS011;15123;-37.794;175.246;2022-09-13T20:56:37;12.90;;;3.10;;
27722;SDS011;15123;-37.794;175.246;2022-09-13T21:00:01;11.85;;;1.20;;
27722;SDS011;15123;-37.794;175.246;2022-09-13T21:03:27;9.48;;;1.05;;
27722;SDS011;15123;-37.794;175.246;2022-09-13T21:06:51;10.50;;;1.33;;
27722;SDS011;15123;-37.794;175.246;2022-09-13T21:10:33;12.18;;;2.13;;
27722;SDS011;15123;-37.794;175.246;2022-09-13T21:13:57;8.73;;;1.27;;
27722;SDS011;15123;-37.794;175.246;2022-09-13T21:17:26;9.32;;;1.10;;
27722;SDS011;15123;-37.794;175.246;2022-09-13T21:20:53;10.18;;;1.10;;
27722;SDS011;15123;-37.794;175.246;2022-09-13T21:24:18;6.55;;;1.00;;
27722;SDS011;15123;-37.794;175.246;2022-09-13T21:27:43;7.97;;;0.98;;
27722;SDS011;15123;-37.794;175.246;2022-09-13T21:31:11;11.55;;;1.30;;
27722;SDS011;15123;-37.794;175.246;2022-09-13T21:34:37;8.48;;;1.17;;
27722;SDS011;15123;-37.794;175.246;2022-09-13T21:38:01;8.15;;;0.95;;
27722;SDS011;15123;-37.794;175.246;2022-09-13T21:41:26;10.38;;;1.33;;
27722;SDS011;15123;-37.794;175.246;2022-09-13T21:44:50;9.82;;;1.08;;
27722;SDS011;15123;-37.794;175.246;2022-09-13T21:48:14;7.18;;;0.90;;
27722;SDS011;15123;-37.794;175.246;2022-09-13T21:51:46;7.35;;;1.02;;
27722;SDS011;15123;-37.794;175.246;2022-09-13T21:55:10;3.35;;;0.50;;
27722;SDS011;15123;-37.794;175.246;2022-09-13T21:58:34;3.38;;;0.40;;
27722;SDS011;15123;-37.794;175.246;2022-09-13T22:01:59;5.13;;;0.50;;
27722;SDS011;15123;-37.794;175.246;2022-09-13T22:05:22;2.53;;;0.40;;
27722;SDS011;15123;-37.794;175.246;2022-09-13T22:08:47;2.58;;;0.40;;
27722;SDS011;15123;-37.794;175.246;2022-09-13T22:12:14;3.22;;;0.40;;
27722;SDS011;15123;-37.794;175.246;2022-09-13T22:15:39;2.92;;;0.43;;
27722;SDS011;15123;-37.794;175.246;2022-09-13T22:19:07;5.10;;;0.60;;
27722;SDS011;15123;-37.794;175.246;2022-09-13T22:22:35;5.40;;;0.75;;
27722;SDS011;15123;-37.794;175.246;2022-09-13T22:25:59;4.90;;;0.60;;
27722;SDS011;15123;-37.794;175.246;2022-09-13T22:29:26;6.50;;;0.68;;
27722;SDS011;15123;-37.794;175.246;2022-09-13T22:32:50;4.05;;;0.80;;
27722;SDS011;15123;-37.794;175.246;2022-09-13T22:36:14;5.68;;;0.70;;
27722;SDS011;15123;-37.794;175.246;2022-09-13T22:39:39;5.90;;;0.65;;
27722;SDS011;15123;-37.794;175.246;2022-09-13T22:43:04;5.82;;;0.70;;
27722;SDS011;15123;-37.794;175.246;2022-09-13T22:46:29;4.45;;;0.68;;
27722;SDS011;15123;-37.794;175.246;2022-09-13T22:49:57;4.18;;;0.70;;
27722;SDS011;15123;-37.794;175.246;2022-09-13T22:53:21;6.20;;;0.80;;
27722;SDS011;15123;-37.794;175.246;2022-09-13T22:56:45;6.78;;;0.98;;
27722;SDS011;15123;-37.794;175.246;2022-09-13T23:00:10;6.88;;;0.90;;
27722;SDS011;15123;-37.794;175.246;2022-09-13T23:03:34;6.60;;;0.93;;
27722;SDS011;15123;-37.794;175.246;2022-09-13T23:07:00;7.53;;;0.90;;